Wednesday, January 17, 2018, 6:29 AM EST
Back to Local

KBAF, Westfield Barnes Municipal

Location: Westfield, MA, United States Lat: 42.167
Local Time: 6:29 AM EST (11:29 GMT) Lon: -72.717
Time Zone: US/Eastern Elev: 272 ft

Show me the last for .
Show Decoded

2018-01-17 05:53 METAR KBAF 171053Z AUTO 01006KT 1 1/2SM -SN BR SCT011 OVC017 M02/M02 A3030 RMK
                 AO2 SLP266 P0001 T10171022 =
2018-01-17 05:50 METAR KBAF 171050Z AUTO 01005KT 1 3/4SM -SN BR SCT011 OVC017 M02/M02 A3030 RMK
                 AO2 P0001 =
2018-01-17 05:21 METAR KBAF 171021Z AUTO 01006KT 2 1/2SM -SN BR OVC010 M02/M02 A3030 RMK AO2
                 P0000 T10171022 =
2018-01-17 04:53 METAR KBAF 170953Z AUTO 01005KT 1 1/2SM -SN BR BKN011 OVC014 M02/M02 A3029 RMK
                 AO2 SLP264 P0003 T10221022 =
2018-01-17 04:50 METAR KBAF 170950Z AUTO 01005KT 1 1/2SM -SN BR BKN011 OVC014 M02/M02 A3029 RMK
                 AO2 P0003 =
2018-01-17 04:43 METAR KBAF 170943Z AUTO 01006KT 1 1/2SM -SN BR BKN009 OVC014 M02/M02 A3030 RMK
                 AO2 P0002 T10221022 =
2018-01-17 04:34 METAR KBAF 170934Z AUTO 36006KT 1SM R20/5500VP6000FT -SN BR SCT009 OVC014
                 M02/M02 A3030 RMK AO2 P0002 T10221022 =
2018-01-17 03:53 METAR KBAF 170853Z AUTO 01004KT 1SM R20/6000VP6000FT -SN BR VV013 M02/M02 A3031
                 RMK AO2 SLP272 P0004 60010 T10221022 58011 =
2018-01-17 02:53 METAR KBAF 170753Z AUTO 36004KT 1SM R20/P6000FT -SN BR VV013 M02/M02 A3033 RMK
                 AO2 SLP277 P0003 T10221022 =
2018-01-17 01:53 METAR KBAF 170653Z AUTO 00000KT 1 1/4SM -SN BR BKN010 OVC014 M02/M02 A3034 RMK
                 AO2 SLP280 P0003 T10221022 =
2018-01-17 01:33 METAR KBAF 170633Z AUTO 01003KT 1 1/2SM -SN BR BKN014 OVC020 M02/M02 A3033 RMK
                 AO2 P0002 T10221022 =
2018-01-17 00:53 METAR KBAF 170553Z AUTO 36004KT 1 3/4SM -SN BR OVC023 M02/M02 A3034 RMK AO2
                 SLP283 P0001 60006 T10221022 11017 21022 58013 =
2018-01-17 00:27 METAR KBAF 170527Z AUTO 01003KT 1 3/4SM -SN BR OVC027 M02/M02 A3036 RMK AO2
                 P0001 T10221022 =
2018-01-17 00:16 METAR KBAF 170516Z AUTO 00000KT 2SM -SN BR OVC027 M02/M02 A3036 RMK AO2 P0000
                 T10221022 =
2018-01-16 23:53 METAR KBAF 170453Z AUTO 01003KT 1 1/2SM -SN BR OVC021 M02/M02 A3037 RMK AO2
                 SLP290 P0002 T10221022 410061078 =
2018-01-16 23:01 METAR KBAF 170401Z AUTO 00000KT 1 1/2SM -SN BR OVC026 M02/M02 A3038 RMK AO2
                 P0000 T10171022 =
2018-01-16 22:53 METAR KBAF 170353Z AUTO 00000KT 2SM -SN BR BKN030 OVC041 M02/M02 A3038 RMK AO2
                 SLP296 P0001 T10171022 =
2018-01-16 22:49 METAR KBAF 170349Z AUTO 00000KT 3SM -SN BR BKN035 OVC043 M02/M02 A3038 RMK AO2
                 P0001 =
2018-01-16 22:39 METAR KBAF 170339Z AUTO 00000KT 2 1/2SM -SN BR FEW027 BKN034 OVC043 M02/M02
                 A3039 RMK AO2 P0001 T10221022 =
2018-01-16 22:03 METAR KBAF 170303Z AUTO 35003KT 1 3/4SM -SN BR OVC028 M02/M02 A3040 RMK AO2
                 P0000 T10171022 =
2018-01-16 21:53 METAR KBAF 170253Z 36003KT 2 1/2SM -SN BR FEW026 OVC030 M02/M02 A3040 RMK AO2
                 SNB20 SLP303 P0000 60002 T10171022 56007 =
2018-01-16 21:37 METAR KBAF 170237Z 33003KT 2 1/2SM -SN BR SCT025 OVC034 M02/M02 A3040 RMK AO2
                 SNB20 P0000 T10171022 =
2018-01-16 20:53 METAR KBAF 170153Z 00000KT 4SM BR OVC021 M02/M02 A3040 RMK AO2 SNE39 SLP303
                 P0001 T10221022 =
2018-01-16 20:42 METAR KBAF 170142Z 00000KT 3SM BR OVC022 M02/M02 A3040 RMK AO2 SNE39 P0001
                 T10221022 =
2018-01-16 20:31 METAR KBAF 170131Z 00000KT 2 1/2SM -SN BR BKN023 OVC032 M02/M02 A3040 RMK AO2
                 P0001 T10221022 =
2018-01-16 19:53 METAR KBAF 170053Z 00000KT 2SM -SN BR OVC030 M02/M02 A3042 RMK AO2 SLP309 P0001
                 T10171022 =
2018-01-16 19:46 METAR KBAF 170046Z 00000KT 1 3/4SM -SN BR BKN030 OVC035 M02/M02 A3042 RMK AO2
                 P0001 T10171022 =
2018-01-16 19:09 METAR KBAF 170009Z 00000KT 2SM -SN BR OVC030 M02/M02 A3042 RMK AO2 P0000
                 T10171022 =
2018-01-16 18:53 METAR KBAF 162353Z 00000KT 1 3/4SM -SN BR OVC026 M02/M02 A3042 RMK AO2 SLP311
                 P0001 60001 T10171022 11006 21017 53001 =
2018-01-16 18:36 METAR KBAF 162336Z 00000KT 2SM -SN BR BKN027 OVC038 M02/M02 A3042 RMK AO2 P0000
                 T10171022 =
2018-01-16 18:14 METAR KBAF 162314Z 00000KT 2 1/2SM -SN BR OVC040 M02/M02 A3043 RMK AO2 P0000
                 T10171022 =
2018-01-16 17:53 METAR KBAF 162253Z 00000KT 4SM -SN BR OVC040 M02/M02 A3042 RMK AO2 SLP310 P0000
                 T10171022 =
2018-01-16 16:53 METAR KBAF 162153Z 00000KT 3SM -SN BR OVC037 M02/M03 A3042 RMK AO2 SLP310 P0000
                 T10171028 =
2018-01-16 16:50 METAR KBAF 162150Z 00000KT 2 1/2SM -SN BR OVC037 M02/M03 A3042 RMK AO2 P0000 =
2018-01-16 16:43 METAR KBAF 162143Z 00000KT 1 3/4SM -SN BR OVC033 M02/M03 A3042 RMK AO2 P0000
                 T10171028 =
2018-01-16 16:25 METAR KBAF 162125Z 00000KT 2SM -SN BR BKN034 OVC048 M02/M03 A3043 RMK AO2 P0000
                 T10171033 =
2018-01-16 15:53 METAR KBAF 162053Z 00000KT 4SM -SN OVC034 M01/M04 A3043 RMK AO2 SLP312 P0000
                 60000 T10111039 55001 =
2018-01-16 14:53 METAR KBAF 161953Z 17006KT 8SM -SN BKN035 OVC045 M01/M05 A3043 RMK AO2 SNB12
                 SLP311 P0000 T10111050 =
2018-01-16 13:53 METAR KBAF 161853Z 17005KT 10SM SCT030 BKN040 OVC085 M01/M06 A3043 RMK AO2
                 SLP312 T10111061 =
2018-01-16 12:53 METAR KBAF 161753Z 18005KT 10SM OVC095 M01/M06 A3043 RMK AO2 SLP313 T10111056
                 11011 21072 58023 =
2018-01-16 11:53 METAR KBAF 161653Z 21004KT 10SM FEW030 BKN037 OVC055 M02/M07 A3046 RMK AO2
                 SLP325 T10221072 =
2018-01-16 11:12 METAR KBAF 161612Z 16005KT 10SM SCT023 BKN036 OVC100 M03/M09 A3049 RMK AO2
                 T10331089 =
2018-01-16 10:53 METAR KBAF 161553Z 17006KT 10SM BKN022 M03/M09 A3050 RMK AO2 SLP336 T10331094 =
2018-01-16 10:51 METAR KBAF 161551Z 19005KT 10SM BKN022 M03/M09 A3050 RMK AO2 =
2018-01-16 09:53 METAR KBAF 161453Z 18006KT 10SM BKN036 M04/M11 A3051 RMK AO2 SLP342 T10441106
                 51008 =
2018-01-16 09:10 METAR KBAF 161410Z 00000KT 10SM SCT021 M06/M11 A3052 RMK AO2 T10561111 =
2018-01-16 08:53 METAR KBAF 161353Z 00000KT 10SM OVC022 M06/M12 A3051 RMK AO2 SLP341 T10611117 =
2018-01-16 07:53 METAR KBAF 161253Z 00000KT 10SM BKN023 OVC033 M07/M11 A3050 RMK AO2 SLP337
                 T10721111 =
2018-01-16 06:53 METAR KBAF 161153Z 36003KT 10SM BKN025 BKN042 OVC070 M07/M13 A3049 RMK AO2
                 SLP334 T10671128 11067 21078 56001 =
2018-01-16 06:46 METAR KBAF 161146Z 02003KT 10SM SCT025 BKN042 OVC070 M07/M13 A3049 RMK AO2
                 T10671128 =

Support USWX by starting your Amazon purchase here.